sensor_id;sensor_type;location;lat;lon;timestamp;P1;durP1;ratioP1;P2;durP2;ratioP2
46875;SDS011;32866;50.160;14.768;2023-01-23T00:02:16;57.85;;;29.00;;
46875;SDS011;32866;50.160;14.768;2023-01-23T00:04:42;51.03;;;28.77;;
46875;SDS011;32866;50.160;14.768;2023-01-23T00:07:07;60.95;;;30.35;;
46875;SDS011;32866;50.160;14.768;2023-01-23T00:09:32;64.82;;;31.20;;
46875;SDS011;32866;50.160;14.768;2023-01-23T00:11:58;52.85;;;27.15;;
46875;SDS011;32866;50.160;14.768;2023-01-23T00:14:23;54.70;;;27.27;;
46875;SDS011;32866;50.160;14.768;2023-01-23T00:16:49;53.40;;;27.80;;
46875;SDS011;32866;50.160;14.768;2023-01-23T00:19:14;62.88;;;30.60;;
46875;SDS011;32866;50.160;14.768;2023-01-23T00:21:40;56.43;;;29.37;;
46875;SDS011;32866;50.160;14.768;2023-01-23T00:24:06;58.85;;;28.88;;
46875;SDS011;32866;50.160;14.768;2023-01-23T00:26:34;56.07;;;28.20;;
46875;SDS011;32866;50.160;14.768;2023-01-23T00:29:00;55.33;;;28.13;;
46875;SDS011;32866;50.160;14.768;2023-01-23T00:33:57;56.70;;;29.43;;
46875;SDS011;32866;50.160;14.768;2023-01-23T00:36:26;65.80;;;32.10;;
46875;SDS011;32866;50.160;14.768;2023-01-23T00:38:54;56.07;;;28.47;;
46875;SDS011;32866;50.160;14.768;2023-01-23T00:41:19;63.92;;;30.63;;
46875;SDS011;32866;50.160;14.768;2023-01-23T00:43:45;53.90;;;26.40;;
46875;SDS011;32866;50.160;14.768;2023-01-23T00:46:12;59.23;;;29.43;;
46875;SDS011;32866;50.160;14.768;2023-01-23T00:48:37;49.40;;;26.52;;
46875;SDS011;32866;50.160;14.768;2023-01-23T00:51:03;52.47;;;25.75;;
46875;SDS011;32866;50.160;14.768;2023-01-23T00:53:28;49.30;;;24.80;;
46875;SDS011;32866;50.160;14.768;2023-01-23T00:55:53;39.30;;;21.88;;
46875;SDS011;32866;50.160;14.768;2023-01-23T00:58:19;44.00;;;22.95;;
46875;SDS011;32866;50.160;14.768;2023-01-23T01:00:45;43.97;;;23.05;;
46875;SDS011;32866;50.160;14.768;2023-01-23T01:03:10;42.03;;;21.45;;
46875;SDS011;32866;50.160;14.768;2023-01-23T01:05:36;45.72;;;24.17;;
46875;SDS011;32866;50.160;14.768;2023-01-23T01:08:01;38.40;;;20.75;;
46875;SDS011;32866;50.160;14.768;2023-01-23T01:10:26;40.40;;;22.02;;
46875;SDS011;32866;50.160;14.768;2023-01-23T01:12:54;42.13;;;21.20;;
46875;SDS011;32866;50.160;14.768;2023-01-23T01:15:20;48.97;;;23.30;;
46875;SDS011;32866;50.160;14.768;2023-01-23T01:21:08;43.60;;;21.77;;
46875;SDS011;32866;50.160;14.768;2023-01-23T01:23:35;45.73;;;23.20;;
46875;SDS011;32866;50.160;14.768;2023-01-23T01:26:02;45.00;;;22.50;;
46875;SDS011;32866;50.160;14.768;2023-01-23T01:28:28;46.30;;;24.57;;
46875;SDS011;32866;50.160;14.768;2023-01-23T01:30:55;47.13;;;23.80;;
46875;SDS011;32866;50.160;14.768;2023-01-23T01:33:21;54.37;;;26.90;;
46875;SDS011;32866;50.160;14.768;2023-01-23T01:35:48;45.07;;;25.77;;
46875;SDS011;32866;50.160;14.768;2023-01-23T01:38:14;54.88;;;26.08;;
46875;SDS011;32866;50.160;14.768;2023-01-23T01:40:39;54.80;;;26.20;;
46875;SDS011;32866;50.160;14.768;2023-01-23T01:43:06;55.67;;;25.30;;
46875;SDS011;32866;50.160;14.768;2023-01-23T01:51:26;49.13;;;24.90;;
46875;SDS011;32866;50.160;14.768;2023-01-23T01:53:59;54.00;;;26.63;;
46875;SDS011;32866;50.160;14.768;2023-01-23T01:56:29;54.90;;;26.43;;
46875;SDS011;32866;50.160;14.768;2023-01-23T01:58:58;63.30;;;29.57;;
46875;SDS011;32866;50.160;14.768;2023-01-23T02:01:25;48.57;;;25.70;;
46875;SDS011;32866;50.160;14.768;2023-01-23T02:03:51;55.25;;;27.10;;
46875;SDS011;32866;50.160;14.768;2023-01-23T02:06:18;70.70;;;31.43;;
46875;SDS011;32866;50.160;14.768;2023-01-23T02:08:59;55.53;;;28.50;;
46875;SDS011;32866;50.160;14.768;2023-01-23T02:11:28;60.10;;;30.70;;
46875;SDS011;32866;50.160;14.768;2023-01-23T02:13:54;67.05;;;32.25;;
46875;SDS011;32866;50.160;14.768;2023-01-23T02:16:24;53.37;;;27.47;;
46875;SDS011;32866;50.160;14.768;2023-01-23T02:19:00;58.07;;;27.73;;
46875;SDS011;32866;50.160;14.768;2023-01-23T02:21:31;44.63;;;24.47;;
46875;SDS011;32866;50.160;14.768;2023-01-23T02:24:11;52.20;;;24.90;;
46875;SDS011;32866;50.160;14.768;2023-01-23T02:26:44;47.73;;;24.03;;
46875;SDS011;32866;50.160;14.768;2023-01-23T02:29:10;43.70;;;21.83;;
46875;SDS011;32866;50.160;14.768;2023-01-23T02:31:37;46.30;;;23.63;;
46875;SDS011;32866;50.160;14.768;2023-01-23T02:34:03;42.53;;;21.17;;
46875;SDS011;32866;50.160;14.768;2023-01-23T02:36:30;43.67;;;20.17;;
46875;SDS011;32866;50.160;14.768;2023-01-23T02:39:11;40.07;;;19.00;;
46875;SDS011;32866;50.160;14.768;2023-01-23T02:41:44;38.97;;;20.27;;
46875;SDS011;32866;50.160;14.768;2023-01-23T02:44:30;31.60;;;19.43;;
46875;SDS011;32866;50.160;14.768;2023-01-23T02:46:57;32.60;;;17.47;;
46875;SDS011;32866;50.160;14.768;2023-01-23T02:49:24;31.30;;;16.87;;
46875;SDS011;32866;50.160;14.768;2023-01-23T02:54:17;28.95;;;16.73;;
46875;SDS011;32866;50.160;14.768;2023-01-23T02:56:43;37.40;;;19.85;;
46875;SDS011;32866;50.160;14.768;2023-01-23T02:59:09;36.10;;;18.50;;
46875;SDS011;32866;50.160;14.768;2023-01-23T03:01:53;37.93;;;19.00;;
46875;SDS011;32866;50.160;14.768;2023-01-23T03:04:18;34.95;;;18.10;;
46875;SDS011;32866;50.160;14.768;2023-01-23T03:06:44;38.75;;;20.25;;
46875;SDS011;32866;50.160;14.768;2023-01-23T03:09:21;35.33;;;18.38;;
46875;SDS011;32866;50.160;14.768;2023-01-23T03:11:47;35.63;;;19.93;;
46875;SDS011;32866;50.160;14.768;2023-01-23T03:14:13;32.22;;;18.00;;
46875;SDS011;32866;50.160;14.768;2023-01-23T03:16:41;30.33;;;16.87;;
46875;SDS011;32866;50.160;14.768;2023-01-23T03:19:09;32.07;;;15.73;;
46875;SDS011;32866;50.160;14.768;2023-01-23T03:21:35;35.25;;;16.30;;
46875;SDS011;32866;50.160;14.768;2023-01-23T03:24:04;33.30;;;16.07;;
46875;SDS011;32866;50.160;14.768;2023-01-23T03:26:31;34.33;;;16.77;;
46875;SDS011;32866;50.160;14.768;2023-01-23T03:28:57;36.58;;;19.02;;
46875;SDS011;32866;50.160;14.768;2023-01-23T03:31:41;39.27;;;17.20;;
46875;SDS011;32866;50.160;14.768;2023-01-23T03:34:06;34.08;;;18.63;;
46875;SDS011;32866;50.160;14.768;2023-01-23T03:36:32;32.15;;;17.98;;
46875;SDS011;32866;50.160;14.768;2023-01-23T03:39:01;40.07;;;18.83;;
46875;SDS011;32866;50.160;14.768;2023-01-23T03:41:49;30.73;;;17.40;;
46875;SDS011;32866;50.160;14.768;2023-01-23T03:44:15;38.20;;;17.95;;
46875;SDS011;32866;50.160;14.768;2023-01-23T03:46:43;39.13;;;18.37;;
46875;SDS011;32866;50.160;14.768;2023-01-23T03:51:34;35.93;;;17.23;;
46875;SDS011;32866;50.160;14.768;2023-01-23T03:53:59;36.95;;;17.73;;
46875;SDS011;32866;50.160;14.768;2023-01-23T03:56:24;39.28;;;19.60;;
46875;SDS011;32866;50.160;14.768;2023-01-23T03:58:53;34.95;;;18.92;;
46875;SDS011;32866;50.160;14.768;2023-01-23T04:01:18;45.10;;;21.33;;
46875;SDS011;32866;50.160;14.768;2023-01-23T04:03:43;44.08;;;21.58;;
46875;SDS011;32866;50.160;14.768;2023-01-23T04:06:09;42.90;;;22.70;;
46875;SDS011;32866;50.160;14.768;2023-01-23T04:08:34;41.70;;;22.50;;
46875;SDS011;32866;50.160;14.768;2023-01-23T04:11:01;43.90;;;22.52;;
46875;SDS011;32866;50.160;14.768;2023-01-23T04:13:30;45.63;;;21.17;;
46875;SDS011;32866;50.160;14.768;2023-01-23T04:15:56;40.03;;;19.38;;
46875;SDS011;32866;50.160;14.768;2023-01-23T04:18:21;41.45;;;20.77;;
46875;SDS011;32866;50.160;14.768;2023-01-23T04:20:47;45.30;;;21.17;;
46875;SDS011;32866;50.160;14.768;2023-01-23T04:23:12;41.63;;;22.23;;
46875;SDS011;32866;50.160;14.768;2023-01-23T04:25:38;41.40;;;22.75;;
46875;SDS011;32866;50.160;14.768;2023-01-23T04:28:03;38.65;;;21.98;;
46875;SDS011;32866;50.160;14.768;2023-01-23T04:30:29;40.55;;;21.17;;
46875;SDS011;32866;50.160;14.768;2023-01-23T04:32:54;46.97;;;24.13;;
46875;SDS011;32866;50.160;14.768;2023-01-23T04:35:19;40.40;;;20.65;;
46875;SDS011;32866;50.160;14.768;2023-01-23T04:37:45;45.65;;;21.60;;
46875;SDS011;32866;50.160;14.768;2023-01-23T04:40:10;38.70;;;23.13;;
46875;SDS011;32866;50.160;14.768;2023-01-23T04:42:36;46.92;;;23.40;;
46875;SDS011;32866;50.160;14.768;2023-01-23T04:45:01;42.92;;;23.83;;
46875;SDS011;32866;50.160;14.768;2023-01-23T04:47:27;39.53;;;20.95;;
46875;SDS011;32866;50.160;14.768;2023-01-23T04:49:52;39.67;;;20.13;;
46875;SDS011;32866;50.160;14.768;2023-01-23T04:52:17;39.05;;;20.15;;
46875;SDS011;32866;50.160;14.768;2023-01-23T04:54:43;35.30;;;19.58;;
46875;SDS011;32866;50.160;14.768;2023-01-23T04:57:08;36.28;;;20.88;;
46875;SDS011;32866;50.160;14.768;2023-01-23T04:59:34;33.17;;;19.05;;
46875;SDS011;32866;50.160;14.768;2023-01-23T05:01:59;42.65;;;21.20;;
46875;SDS011;32866;50.160;14.768;2023-01-23T05:04:26;45.97;;;22.50;;
46875;SDS011;32866;50.160;14.768;2023-01-23T05:06:52;54.28;;;25.52;;
46875;SDS011;32866;50.160;14.768;2023-01-23T05:09:17;49.13;;;21.35;;
46875;SDS011;32866;50.160;14.768;2023-01-23T05:11:43;51.83;;;23.75;;
46875;SDS011;32866;50.160;14.768;2023-01-23T05:14:09;37.60;;;19.47;;
46875;SDS011;32866;50.160;14.768;2023-01-23T05:16:34;31.65;;;17.83;;
46875;SDS011;32866;50.160;14.768;2023-01-23T05:19:00;36.80;;;16.45;;
46875;SDS011;32866;50.160;14.768;2023-01-23T05:21:25;39.15;;;19.08;;
46875;SDS011;32866;50.160;14.768;2023-01-23T05:23:50;36.15;;;16.98;;
46875;SDS011;32866;50.160;14.768;2023-01-23T05:26:16;36.75;;;17.50;;
46875;SDS011;32866;50.160;14.768;2023-01-23T05:28:41;35.28;;;18.05;;
46875;SDS011;32866;50.160;14.768;2023-01-23T05:31:09;33.60;;;17.48;;
46875;SDS011;32866;50.160;14.768;2023-01-23T05:33:36;33.40;;;17.73;;
46875;SDS011;32866;50.160;14.768;2023-01-23T05:36:03;42.43;;;17.10;;
46875;SDS011;32866;50.160;14.768;2023-01-23T05:38:28;33.33;;;15.98;;
46875;SDS011;32866;50.160;14.768;2023-01-23T05:40:55;45.30;;;17.00;;
46875;SDS011;32866;50.160;14.768;2023-01-23T05:43:20;33.28;;;14.20;;
46875;SDS011;32866;50.160;14.768;2023-01-23T05:45:45;53.17;;;16.38;;
46875;SDS011;32866;50.160;14.768;2023-01-23T05:48:11;42.45;;;15.85;;
46875;SDS011;32866;50.160;14.768;2023-01-23T05:50:36;33.40;;;14.65;;
46875;SDS011;32866;50.160;14.768;2023-01-23T05:53:02;42.58;;;15.68;;
46875;SDS011;32866;50.160;14.768;2023-01-23T05:57:53;33.97;;;14.40;;
46875;SDS011;32866;50.160;14.768;2023-01-23T06:00:18;26.27;;;14.13;;
46875;SDS011;32866;50.160;14.768;2023-01-23T06:02:44;33.55;;;13.82;;
46875;SDS011;32866;50.160;14.768;2023-01-23T06:05:11;28.43;;;14.90;;
46875;SDS011;32866;50.160;14.768;2023-01-23T06:07:37;37.83;;;15.77;;
46875;SDS011;32866;50.160;14.768;2023-01-23T06:10:02;35.05;;;16.33;;
46875;SDS011;32866;50.160;14.768;2023-01-23T06:14:53;39.57;;;16.07;;
46875;SDS011;32866;50.160;14.768;2023-01-23T06:17:19;36.70;;;15.90;;
46875;SDS011;32866;50.160;14.768;2023-01-23T06:19:44;41.13;;;17.88;;
46875;SDS011;32866;50.160;14.768;2023-01-23T06:22:10;30.17;;;15.77;;
46875;SDS011;32866;50.160;14.768;2023-01-23T06:24:35;33.05;;;15.30;;
46875;SDS011;32866;50.160;14.768;2023-01-23T06:27:00;33.95;;;13.77;;
46875;SDS011;32866;50.160;14.768;2023-01-23T06:29:28;33.40;;;15.17;;
46875;SDS011;32866;50.160;14.768;2023-01-23T06:31:53;34.72;;;15.40;;
46875;SDS011;32866;50.160;14.768;2023-01-23T06:34:18;30.92;;;17.45;;
46875;SDS011;32866;50.160;14.768;2023-01-23T06:36:44;28.70;;;14.52;;
46875;SDS011;32866;50.160;14.768;2023-01-23T06:41:37;36.63;;;16.52;;
46875;SDS011;32866;50.160;14.768;2023-01-23T06:44:02;36.42;;;17.95;;
46875;SDS011;32866;50.160;14.768;2023-01-23T06:46:27;34.75;;;16.98;;
46875;SDS011;32866;50.160;14.768;2023-01-23T06:48:53;40.08;;;18.30;;
46875;SDS011;32866;50.160;14.768;2023-01-23T06:51:18;34.15;;;19.13;;
46875;SDS011;32866;50.160;14.768;2023-01-23T06:53:43;39.35;;;18.73;;
46875;SDS011;32866;50.160;14.768;2023-01-23T06:56:09;27.25;;;15.93;;
46875;SDS011;32866;50.160;14.768;2023-01-23T06:58:36;27.90;;;14.90;;
46875;SDS011;32866;50.160;14.768;2023-01-23T07:01:09;34.53;;;15.50;;
46875;SDS011;32866;50.160;14.768;2023-01-23T07:03:36;41.77;;;19.63;;
46875;SDS011;32866;50.160;14.768;2023-01-23T07:06:02;40.38;;;19.02;;
46875;SDS011;32866;50.160;14.768;2023-01-23T07:08:31;32.87;;;16.40;;
46875;SDS011;32866;50.160;14.768;2023-01-23T07:10:57;38.50;;;16.97;;
46875;SDS011;32866;50.160;14.768;2023-01-23T07:13:23;34.35;;;15.77;;
46875;SDS011;32866;50.160;14.768;2023-01-23T07:15:48;28.35;;;16.83;;
46875;SDS011;32866;50.160;14.768;2023-01-23T07:18:13;34.92;;;15.77;;
46875;SDS011;32866;50.160;14.768;2023-01-23T07:20:39;32.67;;;15.73;;
46875;SDS011;32866;50.160;14.768;2023-01-23T07:23:07;55.57;;;20.57;;
46875;SDS011;32866;50.160;14.768;2023-01-23T07:25:34;43.90;;;19.43;;
46875;SDS011;32866;50.160;14.768;2023-01-23T07:27:59;40.47;;;18.42;;
46875;SDS011;32866;50.160;14.768;2023-01-23T07:30:24;48.03;;;17.67;;
46875;SDS011;32866;50.160;14.768;2023-01-23T07:32:50;51.25;;;18.20;;
46875;SDS011;32866;50.160;14.768;2023-01-23T07:35:16;45.22;;;16.70;;
46875;SDS011;32866;50.160;14.768;2023-01-23T07:37:41;36.58;;;14.52;;
46875;SDS011;32866;50.160;14.768;2023-01-23T07:40:07;39.47;;;15.10;;
46875;SDS011;32866;50.160;14.768;2023-01-23T07:42:35;43.00;;;18.47;;
46875;SDS011;32866;50.160;14.768;2023-01-23T07:45:00;43.10;;;15.90;;
46875;SDS011;32866;50.160;14.768;2023-01-23T07:47:25;38.08;;;17.10;;
46875;SDS011;32866;50.160;14.768;2023-01-23T07:49:51;39.30;;;17.30;;
46875;SDS011;32866;50.160;14.768;2023-01-23T07:52:16;44.35;;;17.98;;
46875;SDS011;32866;50.160;14.768;2023-01-23T07:54:41;43.05;;;18.42;;
46875;SDS011;32866;50.160;14.768;2023-01-23T07:57:07;45.60;;;18.90;;
46875;SDS011;32866;50.160;14.768;2023-01-23T07:59:32;42.70;;;19.13;;
46875;SDS011;32866;50.160;14.768;2023-01-23T08:01:57;36.63;;;17.92;;
46875;SDS011;32866;50.160;14.768;2023-01-23T08:04:23;34.95;;;16.17;;
46875;SDS011;32866;50.160;14.768;2023-01-23T08:06:48;32.28;;;15.90;;
46875;SDS011;32866;50.160;14.768;2023-01-23T08:09:14;36.33;;;18.48;;
46875;SDS011;32866;50.160;14.768;2023-01-23T08:11:39;42.20;;;18.48;;
46875;SDS011;32866;50.160;14.768;2023-01-23T08:14:04;40.90;;;19.13;;
46875;SDS011;32866;50.160;14.768;2023-01-23T08:16:30;47.33;;;20.85;;
46875;SDS011;32866;50.160;14.768;2023-01-23T08:18:55;49.22;;;21.67;;
46875;SDS011;32866;50.160;14.768;2023-01-23T08:21:21;55.60;;;26.67;;
46875;SDS011;32866;50.160;14.768;2023-01-23T08:23:46;58.67;;;30.60;;
46875;SDS011;32866;50.160;14.768;2023-01-23T08:26:13;60.78;;;32.10;;
46875;SDS011;32866;50.160;14.768;2023-01-23T08:28:40;54.77;;;28.03;;
46875;SDS011;32866;50.160;14.768;2023-01-23T08:31:07;52.30;;;26.23;;
46875;SDS011;32866;50.160;14.768;2023-01-23T08:33:34;44.97;;;24.63;;
46875;SDS011;32866;50.160;14.768;2023-01-23T08:36:00;51.57;;;27.03;;
46875;SDS011;32866;50.160;14.768;2023-01-23T08:38:26;45.38;;;24.95;;
46875;SDS011;32866;50.160;14.768;2023-01-23T08:40:52;44.80;;;24.35;;
46875;SDS011;32866;50.160;14.768;2023-01-23T08:43:19;43.17;;;24.37;;
46875;SDS011;32866;50.160;14.768;2023-01-23T08:45:49;48.07;;;23.63;;
46875;SDS011;32866;50.160;14.768;2023-01-23T08:48:16;47.30;;;24.37;;
46875;SDS011;32866;50.160;14.768;2023-01-23T08:50:42;49.08;;;23.65;;
46875;SDS011;32866;50.160;14.768;2023-01-23T08:53:07;38.83;;;22.20;;
46875;SDS011;32866;50.160;14.768;2023-01-23T08:55:32;34.42;;;19.05;;
46875;SDS011;32866;50.160;14.768;2023-01-23T08:58:00;32.40;;;17.00;;
46875;SDS011;32866;50.160;14.768;2023-01-23T09:00:26;29.27;;;16.10;;
46875;SDS011;32866;50.160;14.768;2023-01-23T09:02:52;34.30;;;17.35;;
46875;SDS011;32866;50.160;14.768;2023-01-23T09:05:17;51.97;;;21.95;;
46875;SDS011;32866;50.160;14.768;2023-01-23T09:07:42;32.05;;;18.90;;
46875;SDS011;32866;50.160;14.768;2023-01-23T09:10:08;43.83;;;21.77;;
46875;SDS011;32866;50.160;14.768;2023-01-23T09:12:34;38.05;;;19.55;;
46875;SDS011;32866;50.160;14.768;2023-01-23T09:14:59;43.78;;;19.35;;
46875;SDS011;32866;50.160;14.768;2023-01-23T09:17:25;37.17;;;18.95;;
46875;SDS011;32866;50.160;14.768;2023-01-23T09:19:51;44.65;;;21.10;;
46875;SDS011;32866;50.160;14.768;2023-01-23T09:22:18;35.20;;;16.47;;
46875;SDS011;32866;50.160;14.768;2023-01-23T09:24:43;34.20;;;15.80;;
46875;SDS011;32866;50.160;14.768;2023-01-23T09:27:09;32.20;;;15.77;;
46875;SDS011;32866;50.160;14.768;2023-01-23T09:29:35;28.00;;;15.00;;
46875;SDS011;32866;50.160;14.768;2023-01-23T09:32:00;24.75;;;14.23;;
46875;SDS011;32866;50.160;14.768;2023-01-23T09:36:52;26.33;;;13.47;;
46875;SDS011;32866;50.160;14.768;2023-01-23T09:39:17;20.08;;;12.77;;
46875;SDS011;32866;50.160;14.768;2023-01-23T09:41:43;22.65;;;12.70;;
46875;SDS011;32866;50.160;14.768;2023-01-23T09:44:52;21.27;;;11.83;;
46875;SDS011;32866;50.160;14.768;2023-01-23T09:46:59;21.90;;;12.60;;
46875;SDS011;32866;50.160;14.768;2023-01-23T09:52:27;21.73;;;12.50;;
46875;SDS011;32866;50.160;14.768;2023-01-23T09:55:12;25.03;;;11.80;;
46875;SDS011;32866;50.160;14.768;2023-01-23T09:57:45;24.10;;;13.53;;
46875;SDS011;32866;50.160;14.768;2023-01-23T10:00:22;25.13;;;13.17;;
46875;SDS011;32866;50.160;14.768;2023-01-23T10:02:48;24.53;;;13.13;;
46875;SDS011;32866;50.160;14.768;2023-01-23T10:05:17;23.25;;;12.70;;
46875;SDS011;32866;50.160;14.768;2023-01-23T10:07:55;17.73;;;11.23;;
46875;SDS011;32866;50.160;14.768;2023-01-23T10:22:00;22.63;;;12.53;;
46875;SDS011;32866;50.160;14.768;2023-01-23T10:24:39;21.80;;;11.57;;
46875;SDS011;32866;50.160;14.768;2023-01-23T10:27:15;23.50;;;11.03;;
46875;SDS011;32866;50.160;14.768;2023-01-23T10:30:12;20.60;;;10.80;;
46875;SDS011;32866;50.160;14.768;2023-01-23T10:32:45;19.90;;;11.70;;
46875;SDS011;32866;50.160;14.768;2023-01-23T10:35:16;21.00;;;10.68;;
46875;SDS011;32866;50.160;14.768;2023-01-23T10:40:33;19.02;;;10.95;;
46875;SDS011;32866;50.160;14.768;2023-01-23T10:43:18;19.63;;;11.03;;
46875;SDS011;32866;50.160;14.768;2023-01-23T10:45:45;20.47;;;10.93;;
46875;SDS011;32866;50.160;14.768;2023-01-23T10:50:55;16.20;;;10.13;;
46875;SDS011;32866;50.160;14.768;2023-01-23T10:55:48;23.33;;;12.23;;
46875;SDS011;32866;50.160;14.768;2023-01-23T11:01:03;18.97;;;11.40;;
46875;SDS011;32866;50.160;14.768;2023-01-23T11:03:31;17.67;;;10.87;;
46875;SDS011;32866;50.160;14.768;2023-01-23T11:06:06;20.83;;;12.27;;
46875;SDS011;32866;50.160;14.768;2023-01-23T11:08:34;19.80;;;11.40;;
46875;SDS011;32866;50.160;14.768;2023-01-23T11:13:47;15.23;;;10.27;;
46875;SDS011;32866;50.160;14.768;2023-01-23T11:16:15;19.33;;;11.27;;
46875;SDS011;32866;50.160;14.768;2023-01-23T11:18:53;19.70;;;11.17;;
46875;SDS011;32866;50.160;14.768;2023-01-23T11:21:22;19.25;;;11.20;;
46875;SDS011;32866;50.160;14.768;2023-01-23T11:24:37;22.60;;;12.07;;
46875;SDS011;32866;50.160;14.768;2023-01-23T11:26:43;16.13;;;10.37;;
46875;SDS011;32866;50.160;14.768;2023-01-23T11:29:18;19.83;;;11.07;;
46875;SDS011;32866;50.160;14.768;2023-01-23T11:32:10;19.67;;;11.13;;
46875;SDS011;32866;50.160;14.768;2023-01-23T11:34:37;20.57;;;10.67;;
46875;SDS011;32866;50.160;14.768;2023-01-23T11:39:52;17.63;;;11.10;;
46875;SDS011;32866;50.160;14.768;2023-01-23T11:42:25;18.83;;;10.80;;
46875;SDS011;32866;50.160;14.768;2023-01-23T11:44:52;49.80;;;21.17;;
46875;SDS011;32866;50.160;14.768;2023-01-23T11:47:38;46.87;;;20.43;;
46875;SDS011;32866;50.160;14.768;2023-01-23T11:55:44;62.53;;;26.37;;
46875;SDS011;32866;50.160;14.768;2023-01-23T12:01:12;49.90;;;23.97;;
46875;SDS011;32866;50.160;14.768;2023-01-23T12:03:57;44.13;;;19.63;;
46875;SDS011;32866;50.160;14.768;2023-01-23T12:16:17;22.37;;;11.87;;
46875;SDS011;32866;50.160;14.768;2023-01-23T12:21:41;22.07;;;12.20;;
46875;SDS011;32866;50.160;14.768;2023-01-23T12:27:00;17.87;;;10.33;;
46875;SDS011;32866;50.160;14.768;2023-01-23T12:32:03;20.17;;;9.80;;
46875;SDS011;32866;50.160;14.768;2023-01-23T12:35:09;22.23;;;11.07;;
46875;SDS011;32866;50.160;14.768;2023-01-23T12:40:23;17.77;;;11.43;;
46875;SDS011;32866;50.160;14.768;2023-01-23T12:43:02;17.88;;;10.93;;
46875;SDS011;32866;50.160;14.768;2023-01-23T12:45:35;24.50;;;11.90;;
46875;SDS011;32866;50.160;14.768;2023-01-23T12:48:24;20.53;;;11.37;;
46875;SDS011;32866;50.160;14.768;2023-01-23T12:50:58;19.60;;;12.20;;
46875;SDS011;32866;50.160;14.768;2023-01-23T12:53:29;16.83;;;11.90;;
46875;SDS011;32866;50.160;14.768;2023-01-23T12:56:01;16.97;;;11.43;;
46875;SDS011;32866;50.160;14.768;2023-01-23T12:58:33;21.33;;;13.80;;
46875;SDS011;32866;50.160;14.768;2023-01-23T13:09:25;23.13;;;13.63;;
46875;SDS011;32866;50.160;14.768;2023-01-23T13:14:51;22.97;;;13.03;;
46875;SDS011;32866;50.160;14.768;2023-01-23T13:17:40;19.87;;;13.30;;
46875;SDS011;32866;50.160;14.768;2023-01-23T13:23:36;23.63;;;13.40;;
46875;SDS011;32866;50.160;14.768;2023-01-23T13:26:20;22.73;;;13.17;;
46875;SDS011;32866;50.160;14.768;2023-01-23T13:36:40;20.93;;;12.07;;
46875;SDS011;32866;50.160;14.768;2023-01-23T13:41:42;20.30;;;12.93;;
46875;SDS011;32866;50.160;14.768;2023-01-23T13:44:16;19.63;;;12.43;;
46875;SDS011;32866;50.160;14.768;2023-01-23T13:52:18;21.57;;;13.10;;
46875;SDS011;32866;50.160;14.768;2023-01-23T13:55:32;18.93;;;13.00;;
46875;SDS011;32866;50.160;14.768;2023-01-23T13:58:17;20.80;;;12.20;;
46875;SDS011;32866;50.160;14.768;2023-01-23T14:00:50;24.83;;;14.37;;
46875;SDS011;32866;50.160;14.768;2023-01-23T14:03:38;20.93;;;12.30;;
46875;SDS011;32866;50.160;14.768;2023-01-23T14:06:57;24.83;;;14.00;;
46875;SDS011;32866;50.160;14.768;2023-01-23T14:09:23;21.03;;;12.93;;
46875;SDS011;32866;50.160;14.768;2023-01-23T14:12:00;24.37;;;13.83;;
46875;SDS011;32866;50.160;14.768;2023-01-23T14:14:31;21.77;;;13.47;;
46875;SDS011;32866;50.160;14.768;2023-01-23T14:17:16;20.80;;;12.53;;
46875;SDS011;32866;50.160;14.768;2023-01-23T14:19:47;23.80;;;14.17;;
46875;SDS011;32866;50.160;14.768;2023-01-23T14:22:16;25.53;;;13.10;;
46875;SDS011;32866;50.160;14.768;2023-01-23T14:24:45;26.63;;;13.48;;
46875;SDS011;32866;50.160;14.768;2023-01-23T14:30:08;24.40;;;15.13;;
46875;SDS011;32866;50.160;14.768;2023-01-23T14:32:40;24.57;;;13.90;;
46875;SDS011;32866;50.160;14.768;2023-01-23T14:35:19;21.92;;;14.00;;
46875;SDS011;32866;50.160;14.768;2023-01-23T14:37:48;23.47;;;14.20;;
46875;SDS011;32866;50.160;14.768;2023-01-23T14:42:44;22.50;;;13.57;;
46875;SDS011;32866;50.160;14.768;2023-01-23T14:45:25;24.35;;;15.18;;
46875;SDS011;32866;50.160;14.768;2023-01-23T14:47:53;24.57;;;13.87;;
46875;SDS011;32866;50.160;14.768;2023-01-23T14:50:20;29.13;;;16.15;;
46875;SDS011;32866;50.160;14.768;2023-01-23T14:52:58;30.43;;;17.00;;
46875;SDS011;32866;50.160;14.768;2023-01-23T14:55:25;29.37;;;16.40;;
46875;SDS011;32866;50.160;14.768;2023-01-23T14:57:52;30.87;;;17.30;;
46875;SDS011;32866;50.160;14.768;2023-01-23T15:00:20;59.53;;;30.37;;
46875;SDS011;32866;50.160;14.768;2023-01-23T15:02:47;39.43;;;22.07;;
46875;SDS011;32866;50.160;14.768;2023-01-23T15:05:19;34.87;;;17.83;;
46875;SDS011;32866;50.160;14.768;2023-01-23T15:07:48;44.07;;;20.13;;
46875;SDS011;32866;50.160;14.768;2023-01-23T15:10:15;39.13;;;18.53;;
46875;SDS011;32866;50.160;14.768;2023-01-23T15:12:48;47.50;;;21.17;;
46875;SDS011;32866;50.160;14.768;2023-01-23T15:15:22;43.40;;;20.27;;
46875;SDS011;32866;50.160;14.768;2023-01-23T15:17:49;49.50;;;24.50;;
46875;SDS011;32866;50.160;14.768;2023-01-23T15:20:48;45.90;;;21.65;;
46875;SDS011;32866;50.160;14.768;2023-01-23T15:25:44;43.67;;;22.63;;
46875;SDS011;32866;50.160;14.768;2023-01-23T15:28:29;34.37;;;19.83;;
46875;SDS011;32866;50.160;14.768;2023-01-23T15:31:03;36.23;;;19.77;;
46875;SDS011;32866;50.160;14.768;2023-01-23T15:33:29;29.65;;;17.10;;
46875;SDS011;32866;50.160;14.768;2023-01-23T15:36:02;32.83;;;18.07;;
46875;SDS011;32866;50.160;14.768;2023-01-23T15:38:30;38.27;;;20.10;;
46875;SDS011;32866;50.160;14.768;2023-01-23T15:40:56;35.58;;;20.15;;
46875;SDS011;32866;50.160;14.768;2023-01-23T15:43:21;38.58;;;20.23;;
46875;SDS011;32866;50.160;14.768;2023-01-23T15:45:47;38.33;;;19.63;;
46875;SDS011;32866;50.160;14.768;2023-01-23T15:48:12;36.17;;;17.95;;
46875;SDS011;32866;50.160;14.768;2023-01-23T15:50:37;29.70;;;18.00;;
46875;SDS011;32866;50.160;14.768;2023-01-23T15:53:08;27.02;;;17.42;;
46875;SDS011;32866;50.160;14.768;2023-01-23T15:55:36;33.73;;;19.00;;
46875;SDS011;32866;50.160;14.768;2023-01-23T15:58:01;29.67;;;16.95;;
46875;SDS011;32866;50.160;14.768;2023-01-23T16:00:27;28.88;;;17.27;;
46875;SDS011;32866;50.160;14.768;2023-01-23T16:02:53;30.23;;;17.37;;
46875;SDS011;32866;50.160;14.768;2023-01-23T16:05:20;31.90;;;19.03;;
46875;SDS011;32866;50.160;14.768;2023-01-23T16:07:51;29.10;;;17.47;;
46875;SDS011;32866;50.160;14.768;2023-01-23T16:10:21;32.63;;;17.13;;
46875;SDS011;32866;50.160;14.768;2023-01-23T16:12:48;34.20;;;17.23;;
46875;SDS011;32866;50.160;14.768;2023-01-23T16:15:15;31.90;;;17.97;;
46875;SDS011;32866;50.160;14.768;2023-01-23T16:17:43;26.83;;;16.93;;
46875;SDS011;32866;50.160;14.768;2023-01-23T16:20:13;35.90;;;17.67;;
46875;SDS011;32866;50.160;14.768;2023-01-23T16:22:42;29.60;;;17.90;;
46875;SDS011;32866;50.160;14.768;2023-01-23T16:25:29;30.47;;;18.67;;